sensor_id;sensor_type;location;lat;lon;timestamp;P1;durP1;ratioP1;P2;durP2;ratioP2
29382;SDS011;16365;51.598;7.668;2023-07-09T00:01:17;11.77;;;6.40;;
29382;SDS011;16365;51.598;7.668;2023-07-09T00:03:45;13.48;;;6.43;;
29382;SDS011;16365;51.598;7.668;2023-07-09T00:06:18;11.18;;;6.75;;
29382;SDS011;16365;51.598;7.668;2023-07-09T00:08:47;9.75;;;5.88;;
29382;SDS011;16365;51.598;7.668;2023-07-09T00:11:15;9.02;;;5.70;;
29382;SDS011;16365;51.598;7.668;2023-07-09T00:13:42;10.38;;;6.80;;
29382;SDS011;16365;51.598;7.668;2023-07-09T00:16:13;13.35;;;7.32;;
29382;SDS011;16365;51.598;7.668;2023-07-09T00:18:45;12.15;;;6.22;;
29382;SDS011;16365;51.598;7.668;2023-07-09T00:21:16;11.27;;;6.57;;
29382;SDS011;16365;51.598;7.668;2023-07-09T00:23:48;10.00;;;5.53;;
29382;SDS011;16365;51.598;7.668;2023-07-09T00:26:15;9.43;;;6.28;;
29382;SDS011;16365;51.598;7.668;2023-07-09T00:28:45;12.68;;;5.82;;
29382;SDS011;16365;51.598;7.668;2023-07-09T00:31:13;9.73;;;6.60;;
29382;SDS011;16365;51.598;7.668;2023-07-09T00:33:44;9.10;;;5.90;;
29382;SDS011;16365;51.598;7.668;2023-07-09T00:36:16;9.93;;;5.80;;
29382;SDS011;16365;51.598;7.668;2023-07-09T00:38:47;13.60;;;6.32;;
29382;SDS011;16365;51.598;7.668;2023-07-09T00:41:16;11.27;;;6.35;;
29382;SDS011;16365;51.598;7.668;2023-07-09T00:43:47;11.05;;;6.20;;
29382;SDS011;16365;51.598;7.668;2023-07-09T00:47:06;16.30;;;6.85;;
29382;SDS011;16365;51.598;7.668;2023-07-09T00:49:03;11.85;;;7.30;;
29382;SDS011;16365;51.598;7.668;2023-07-09T00:51:34;9.50;;;5.97;;
29382;SDS011;16365;51.598;7.668;2023-07-09T00:54:12;14.68;;;7.30;;
29382;SDS011;16365;51.598;7.668;2023-07-09T00:56:48;10.32;;;6.63;;
29382;SDS011;16365;51.598;7.668;2023-07-09T00:59:18;14.98;;;6.22;;
29382;SDS011;16365;51.598;7.668;2023-07-09T01:01:48;15.95;;;6.63;;
29382;SDS011;16365;51.598;7.668;2023-07-09T01:06:48;15.55;;;5.70;;
29382;SDS011;16365;51.598;7.668;2023-07-09T01:09:18;11.15;;;6.95;;
29382;SDS011;16365;51.598;7.668;2023-07-09T01:11:45;10.95;;;6.55;;
29382;SDS011;16365;51.598;7.668;2023-07-09T01:14:12;10.77;;;6.63;;
29382;SDS011;16365;51.598;7.668;2023-07-09T01:16:44;17.25;;;6.90;;
29382;SDS011;16365;51.598;7.668;2023-07-09T01:19:14;11.95;;;6.82;;
29382;SDS011;16365;51.598;7.668;2023-07-09T01:21:42;10.63;;;6.00;;
29382;SDS011;16365;51.598;7.668;2023-07-09T01:24:13;11.38;;;6.22;;
29382;SDS011;16365;51.598;7.668;2023-07-09T01:26:41;14.23;;;6.50;;
29382;SDS011;16365;51.598;7.668;2023-07-09T01:29:09;12.35;;;6.18;;
29382;SDS011;16365;51.598;7.668;2023-07-09T01:31:36;15.25;;;7.15;;
29382;SDS011;16365;51.598;7.668;2023-07-09T01:34:05;12.52;;;6.43;;
29382;SDS011;16365;51.598;7.668;2023-07-09T01:36:31;12.10;;;6.53;;
29382;SDS011;16365;51.598;7.668;2023-07-09T01:38:58;14.57;;;7.05;;
29382;SDS011;16365;51.598;7.668;2023-07-09T01:41:24;15.23;;;6.72;;
29382;SDS011;16365;51.598;7.668;2023-07-09T01:43:51;13.00;;;6.32;;
29382;SDS011;16365;51.598;7.668;2023-07-09T01:46:19;10.50;;;6.28;;
29382;SDS011;16365;51.598;7.668;2023-07-09T01:48:45;10.27;;;6.50;;
29382;SDS011;16365;51.598;7.668;2023-07-09T01:51:12;12.10;;;7.00;;
29382;SDS011;16365;51.598;7.668;2023-07-09T01:53:42;10.88;;;6.50;;
29382;SDS011;16365;51.598;7.668;2023-07-09T01:56:11;12.77;;;7.30;;
29382;SDS011;16365;51.598;7.668;2023-07-09T01:58:38;11.77;;;6.80;;
29382;SDS011;16365;51.598;7.668;2023-07-09T02:01:08;9.65;;;6.30;;
29382;SDS011;16365;51.598;7.668;2023-07-09T02:03:38;12.65;;;6.80;;
29382;SDS011;16365;51.598;7.668;2023-07-09T02:06:05;11.80;;;6.30;;
29382;SDS011;16365;51.598;7.668;2023-07-09T02:08:36;11.75;;;6.57;;
29382;SDS011;16365;51.598;7.668;2023-07-09T02:11:04;14.70;;;6.63;;
29382;SDS011;16365;51.598;7.668;2023-07-09T02:13:31;13.13;;;6.93;;
29382;SDS011;16365;51.598;7.668;2023-07-09T02:15:58;13.23;;;6.70;;
29382;SDS011;16365;51.598;7.668;2023-07-09T02:18:25;11.77;;;6.60;;
29382;SDS011;16365;51.598;7.668;2023-07-09T02:20:52;9.85;;;6.03;;
29382;SDS011;16365;51.598;7.668;2023-07-09T02:23:18;11.63;;;6.47;;
29382;SDS011;16365;51.598;7.668;2023-07-09T02:25:45;12.80;;;6.93;;
29382;SDS011;16365;51.598;7.668;2023-07-09T02:28:11;14.48;;;6.55;;
29382;SDS011;16365;51.598;7.668;2023-07-09T02:30:38;13.05;;;6.72;;
29382;SDS011;16365;51.598;7.668;2023-07-09T02:33:05;12.30;;;6.70;;
29382;SDS011;16365;51.598;7.668;2023-07-09T02:35:31;12.02;;;6.40;;
29382;SDS011;16365;51.598;7.668;2023-07-09T02:37:58;10.95;;;6.10;;
29382;SDS011;16365;51.598;7.668;2023-07-09T02:40:24;11.63;;;6.38;;
29382;SDS011;16365;51.598;7.668;2023-07-09T02:42:51;11.13;;;6.10;;
29382;SDS011;16365;51.598;7.668;2023-07-09T02:45:17;11.48;;;6.55;;
29382;SDS011;16365;51.598;7.668;2023-07-09T02:47:44;11.40;;;7.18;;
29382;SDS011;16365;51.598;7.668;2023-07-09T02:50:11;11.20;;;6.25;;
29382;SDS011;16365;51.598;7.668;2023-07-09T02:52:37;13.38;;;7.18;;
29382;SDS011;16365;51.598;7.668;2023-07-09T02:57:32;11.48;;;5.97;;
29382;SDS011;16365;51.598;7.668;2023-07-09T02:59:59;14.57;;;7.00;;
29382;SDS011;16365;51.598;7.668;2023-07-09T03:02:26;11.30;;;6.75;;
29382;SDS011;16365;51.598;7.668;2023-07-09T03:04:52;11.93;;;6.90;;
29382;SDS011;16365;51.598;7.668;2023-07-09T03:07:19;11.40;;;7.10;;
29382;SDS011;16365;51.598;7.668;2023-07-09T03:09:46;11.45;;;6.93;;
29382;SDS011;16365;51.598;7.668;2023-07-09T03:12:12;13.57;;;6.68;;
29382;SDS011;16365;51.598;7.668;2023-07-09T03:14:39;10.60;;;6.32;;
29382;SDS011;16365;51.598;7.668;2023-07-09T03:17:05;13.40;;;6.93;;
29382;SDS011;16365;51.598;7.668;2023-07-09T03:19:32;13.77;;;6.75;;
29382;SDS011;16365;51.598;7.668;2023-07-09T03:22:02;9.48;;;6.22;;
29382;SDS011;16365;51.598;7.668;2023-07-09T03:24:29;11.70;;;6.63;;
29382;SDS011;16365;51.598;7.668;2023-07-09T03:26:56;13.15;;;7.63;;
29382;SDS011;16365;51.598;7.668;2023-07-09T03:29:23;10.15;;;6.55;;
29382;SDS011;16365;51.598;7.668;2023-07-09T03:31:50;13.25;;;6.82;;
29382;SDS011;16365;51.598;7.668;2023-07-09T03:34:16;18.10;;;6.70;;
29382;SDS011;16365;51.598;7.668;2023-07-09T03:36:43;9.75;;;6.22;;
29382;SDS011;16365;51.598;7.668;2023-07-09T03:39:11;10.57;;;6.15;;
29382;SDS011;16365;51.598;7.668;2023-07-09T03:41:38;10.52;;;6.53;;
29382;SDS011;16365;51.598;7.668;2023-07-09T03:44:04;9.13;;;5.93;;
29382;SDS011;16365;51.598;7.668;2023-07-09T03:46:31;11.18;;;6.43;;
29382;SDS011;16365;51.598;7.668;2023-07-09T03:48:58;10.65;;;6.70;;
29382;SDS011;16365;51.598;7.668;2023-07-09T03:51:25;13.63;;;6.72;;
29382;SDS011;16365;51.598;7.668;2023-07-09T03:53:52;14.23;;;7.20;;
29382;SDS011;16365;51.598;7.668;2023-07-09T03:56:20;13.33;;;6.60;;
29382;SDS011;16365;51.598;7.668;2023-07-09T03:58:46;10.55;;;6.40;;
29382;SDS011;16365;51.598;7.668;2023-07-09T04:01:13;10.93;;;6.65;;
29382;SDS011;16365;51.598;7.668;2023-07-09T04:03:43;10.77;;;6.93;;
29382;SDS011;16365;51.598;7.668;2023-07-09T04:06:09;9.73;;;6.43;;
29382;SDS011;16365;51.598;7.668;2023-07-09T04:08:36;11.70;;;6.85;;
29382;SDS011;16365;51.598;7.668;2023-07-09T04:11:03;13.38;;;6.80;;
29382;SDS011;16365;51.598;7.668;2023-07-09T04:13:29;12.10;;;7.07;;
29382;SDS011;16365;51.598;7.668;2023-07-09T04:15:56;12.68;;;6.90;;
29382;SDS011;16365;51.598;7.668;2023-07-09T04:18:23;10.70;;;6.90;;
29382;SDS011;16365;51.598;7.668;2023-07-09T04:20:50;11.43;;;6.55;;
29382;SDS011;16365;51.598;7.668;2023-07-09T04:23:17;11.43;;;7.10;;
29382;SDS011;16365;51.598;7.668;2023-07-09T04:25:45;10.95;;;6.63;;
29382;SDS011;16365;51.598;7.668;2023-07-09T04:28:12;11.98;;;7.70;;
29382;SDS011;16365;51.598;7.668;2023-07-09T04:30:44;9.57;;;6.20;;
29382;SDS011;16365;51.598;7.668;2023-07-09T04:33:14;11.52;;;6.85;;
29382;SDS011;16365;51.598;7.668;2023-07-09T04:35:44;15.27;;;6.38;;
29382;SDS011;16365;51.598;7.668;2023-07-09T04:38:12;11.40;;;7.05;;
29382;SDS011;16365;51.598;7.668;2023-07-09T04:40:40;12.60;;;6.90;;
29382;SDS011;16365;51.598;7.668;2023-07-09T04:43:07;14.07;;;6.85;;
29382;SDS011;16365;51.598;7.668;2023-07-09T04:45:34;14.82;;;7.10;;
29382;SDS011;16365;51.598;7.668;2023-07-09T04:48:00;12.82;;;6.57;;
29382;SDS011;16365;51.598;7.668;2023-07-09T04:50:27;10.85;;;6.78;;
29382;SDS011;16365;51.598;7.668;2023-07-09T04:52:54;12.60;;;6.63;;
29382;SDS011;16365;51.598;7.668;2023-07-09T04:55:20;12.02;;;6.18;;
29382;SDS011;16365;51.598;7.668;2023-07-09T04:57:47;12.48;;;6.55;;
29382;SDS011;16365;51.598;7.668;2023-07-09T05:00:15;10.23;;;6.45;;
29382;SDS011;16365;51.598;7.668;2023-07-09T05:02:44;10.52;;;6.40;;
29382;SDS011;16365;51.598;7.668;2023-07-09T05:05:12;14.88;;;6.45;;
29382;SDS011;16365;51.598;7.668;2023-07-09T05:07:39;10.50;;;5.82;;
29382;SDS011;16365;51.598;7.668;2023-07-09T05:10:06;12.73;;;7.57;;
29382;SDS011;16365;51.598;7.668;2023-07-09T05:12:33;12.25;;;6.75;;
29382;SDS011;16365;51.598;7.668;2023-07-09T05:14:59;12.20;;;6.75;;
29382;SDS011;16365;51.598;7.668;2023-07-09T05:17:26;13.82;;;6.85;;
29382;SDS011;16365;51.598;7.668;2023-07-09T05:19:53;12.43;;;6.65;;
29382;SDS011;16365;51.598;7.668;2023-07-09T05:22:19;10.68;;;6.20;;
29382;SDS011;16365;51.598;7.668;2023-07-09T05:24:46;12.07;;;6.80;;
29382;SDS011;16365;51.598;7.668;2023-07-09T05:27:12;11.23;;;6.90;;
29382;SDS011;16365;51.598;7.668;2023-07-09T05:29:39;14.88;;;6.03;;
29382;SDS011;16365;51.598;7.668;2023-07-09T05:32:05;11.63;;;6.40;;
29382;SDS011;16365;51.598;7.668;2023-07-09T05:34:32;12.45;;;6.93;;
29382;SDS011;16365;51.598;7.668;2023-07-09T05:36:59;13.10;;;6.32;;
29382;SDS011;16365;51.598;7.668;2023-07-09T05:39:26;10.35;;;6.65;;
29382;SDS011;16365;51.598;7.668;2023-07-09T05:41:54;14.55;;;6.55;;
29382;SDS011;16365;51.598;7.668;2023-07-09T05:44:21;14.57;;;6.57;;
29382;SDS011;16365;51.598;7.668;2023-07-09T05:46:47;8.85;;;5.63;;
29382;SDS011;16365;51.598;7.668;2023-07-09T05:49:14;12.77;;;6.15;;
29382;SDS011;16365;51.598;7.668;2023-07-09T05:51:40;14.73;;;6.10;;
29382;SDS011;16365;51.598;7.668;2023-07-09T05:54:07;13.40;;;6.40;;
29382;SDS011;16365;51.598;7.668;2023-07-09T05:56:34;13.02;;;6.25;;
29382;SDS011;16365;51.598;7.668;2023-07-09T05:59:01;12.82;;;6.05;;
29382;SDS011;16365;51.598;7.668;2023-07-09T06:01:28;11.60;;;6.00;;
29382;SDS011;16365;51.598;7.668;2023-07-09T06:03:54;16.38;;;6.43;;
29382;SDS011;16365;51.598;7.668;2023-07-09T06:06:23;13.32;;;5.80;;
29382;SDS011;16365;51.598;7.668;2023-07-09T06:08:50;11.90;;;6.25;;
29382;SDS011;16365;51.598;7.668;2023-07-09T06:11:16;10.13;;;6.00;;
29382;SDS011;16365;51.598;7.668;2023-07-09T06:13:44;12.10;;;5.97;;
29382;SDS011;16365;51.598;7.668;2023-07-09T06:16:13;10.57;;;6.00;;
29382;SDS011;16365;51.598;7.668;2023-07-09T06:18:40;7.90;;;5.10;;
29382;SDS011;16365;51.598;7.668;2023-07-09T06:21:07;8.95;;;5.60;;
29382;SDS011;16365;51.598;7.668;2023-07-09T06:23:35;17.33;;;5.80;;
29382;SDS011;16365;51.598;7.668;2023-07-09T06:26:01;13.52;;;6.00;;
29382;SDS011;16365;51.598;7.668;2023-07-09T06:28:30;10.57;;;5.57;;
29382;SDS011;16365;51.598;7.668;2023-07-09T06:33:24;12.18;;;5.03;;
29382;SDS011;16365;51.598;7.668;2023-07-09T06:35:59;13.13;;;5.75;;
29382;SDS011;16365;51.598;7.668;2023-07-09T06:38:27;10.13;;;5.68;;
29382;SDS011;16365;51.598;7.668;2023-07-09T06:40:56;10.43;;;5.85;;
29382;SDS011;16365;51.598;7.668;2023-07-09T06:43:23;9.55;;;5.88;;
29382;SDS011;16365;51.598;7.668;2023-07-09T06:45:51;9.48;;;5.70;;
29382;SDS011;16365;51.598;7.668;2023-07-09T06:48:24;11.18;;;6.20;;
29382;SDS011;16365;51.598;7.668;2023-07-09T06:50:52;13.18;;;6.65;;
29382;SDS011;16365;51.598;7.668;2023-07-09T06:53:20;11.75;;;6.45;;
29382;SDS011;16365;51.598;7.668;2023-07-09T06:55:48;9.57;;;5.53;;
29382;SDS011;16365;51.598;7.668;2023-07-09T06:58:22;11.68;;;5.38;;
29382;SDS011;16365;51.598;7.668;2023-07-09T07:00:51;14.60;;;6.20;;
29382;SDS011;16365;51.598;7.668;2023-07-09T07:03:18;12.65;;;5.50;;
29382;SDS011;16365;51.598;7.668;2023-07-09T07:05:45;8.80;;;5.72;;
29382;SDS011;16365;51.598;7.668;2023-07-09T07:08:17;7.78;;;5.22;;
29382;SDS011;16365;51.598;7.668;2023-07-09T07:10:45;12.63;;;6.00;;
29382;SDS011;16365;51.598;7.668;2023-07-09T07:13:13;10.52;;;5.60;;
29382;SDS011;16365;51.598;7.668;2023-07-09T07:15:40;10.63;;;5.68;;
29382;SDS011;16365;51.598;7.668;2023-07-09T07:18:07;8.48;;;5.70;;
29382;SDS011;16365;51.598;7.668;2023-07-09T07:20:34;9.55;;;6.07;;
29382;SDS011;16365;51.598;7.668;2023-07-09T07:23:00;8.95;;;5.70;;
29382;SDS011;16365;51.598;7.668;2023-07-09T07:25:27;10.30;;;5.78;;
29382;SDS011;16365;51.598;7.668;2023-07-09T07:27:58;12.18;;;6.40;;
29382;SDS011;16365;51.598;7.668;2023-07-09T07:30:24;10.90;;;5.85;;
29382;SDS011;16365;51.598;7.668;2023-07-09T07:32:51;10.05;;;5.78;;
29382;SDS011;16365;51.598;7.668;2023-07-09T07:35:18;10.77;;;5.50;;
29382;SDS011;16365;51.598;7.668;2023-07-09T07:37:46;9.27;;;6.00;;
29382;SDS011;16365;51.598;7.668;2023-07-09T07:40:12;8.88;;;5.80;;
29382;SDS011;16365;51.598;7.668;2023-07-09T07:42:39;8.90;;;5.95;;
29382;SDS011;16365;51.598;7.668;2023-07-09T07:45:06;10.85;;;6.07;;
29382;SDS011;16365;51.598;7.668;2023-07-09T07:47:35;10.73;;;5.90;;
29382;SDS011;16365;51.598;7.668;2023-07-09T07:50:04;9.65;;;5.97;;
29382;SDS011;16365;51.598;7.668;2023-07-09T07:52:32;13.02;;;7.00;;
29382;SDS011;16365;51.598;7.668;2023-07-09T07:54:59;12.23;;;6.07;;
29382;SDS011;16365;51.598;7.668;2023-07-09T07:57:27;12.65;;;6.20;;
29382;SDS011;16365;51.598;7.668;2023-07-09T07:59:53;12.30;;;6.57;;
29382;SDS011;16365;51.598;7.668;2023-07-09T08:02:20;14.25;;;5.80;;
29382;SDS011;16365;51.598;7.668;2023-07-09T08:04:47;12.30;;;7.18;;
29382;SDS011;16365;51.598;7.668;2023-07-09T08:07:13;9.98;;;6.15;;
29382;SDS011;16365;51.598;7.668;2023-07-09T08:09:40;10.93;;;6.85;;
29382;SDS011;16365;51.598;7.668;2023-07-09T08:12:06;9.68;;;5.90;;
29382;SDS011;16365;51.598;7.668;2023-07-09T08:14:42;11.15;;;5.97;;
29382;SDS011;16365;51.598;7.668;2023-07-09T08:17:11;17.58;;;5.97;;
29382;SDS011;16365;51.598;7.668;2023-07-09T08:19:47;9.32;;;5.88;;
29382;SDS011;16365;51.598;7.668;2023-07-09T08:22:16;9.27;;;6.07;;
29382;SDS011;16365;51.598;7.668;2023-07-09T08:24:50;12.60;;;6.55;;
29382;SDS011;16365;51.598;7.668;2023-07-09T08:27:17;14.65;;;6.65;;
29382;SDS011;16365;51.598;7.668;2023-07-09T08:29:46;7.65;;;5.70;;
29382;SDS011;16365;51.598;7.668;2023-07-09T08:32:13;8.45;;;6.18;;
29382;SDS011;16365;51.598;7.668;2023-07-09T08:34:41;8.82;;;6.15;;
29382;SDS011;16365;51.598;7.668;2023-07-09T08:37:28;13.38;;;6.45;;
29382;SDS011;16365;51.598;7.668;2023-07-09T08:39:55;10.52;;;5.93;;
29382;SDS011;16365;51.598;7.668;2023-07-09T08:42:29;12.32;;;6.32;;
29382;SDS011;16365;51.598;7.668;2023-07-09T08:45:20;10.07;;;6.00;;
29382;SDS011;16365;51.598;7.668;2023-07-09T08:48:11;10.63;;;5.97;;
29382;SDS011;16365;51.598;7.668;2023-07-09T08:50:51;10.10;;;6.07;;
29382;SDS011;16365;51.598;7.668;2023-07-09T08:53:32;10.90;;;5.97;;
29382;SDS011;16365;51.598;7.668;2023-07-09T08:56:02;9.05;;;5.93;;
29382;SDS011;16365;51.598;7.668;2023-07-09T08:58:30;9.15;;;6.07;;
29382;SDS011;16365;51.598;7.668;2023-07-09T09:00:59;14.68;;;7.57;;
29382;SDS011;16365;51.598;7.668;2023-07-09T09:03:30;10.82;;;6.00;;
29382;SDS011;16365;51.598;7.668;2023-07-09T09:06:16;11.60;;;6.80;;
29382;SDS011;16365;51.598;7.668;2023-07-09T09:14:54;13.93;;;6.15;;
29382;SDS011;16365;51.598;7.668;2023-07-09T09:17:24;14.60;;;7.45;;
29382;SDS011;16365;51.598;7.668;2023-07-09T09:19:56;12.35;;;6.55;;
29382;SDS011;16365;51.598;7.668;2023-07-09T09:22:29;9.70;;;5.90;;
29382;SDS011;16365;51.598;7.668;2023-07-09T09:25:02;11.85;;;6.45;;
29382;SDS011;16365;51.598;7.668;2023-07-09T09:27:37;12.88;;;6.32;;
29382;SDS011;16365;51.598;7.668;2023-07-09T09:30:08;10.00;;;6.30;;
29382;SDS011;16365;51.598;7.668;2023-07-09T09:32:43;10.27;;;6.75;;
29382;SDS011;16365;51.598;7.668;2023-07-09T09:35:12;8.73;;;6.18;;
29382;SDS011;16365;51.598;7.668;2023-07-09T09:37:40;12.80;;;6.78;;
29382;SDS011;16365;51.598;7.668;2023-07-09T09:40:17;11.25;;;6.65;;
29382;SDS011;16365;51.598;7.668;2023-07-09T09:42:50;10.93;;;6.32;;
29382;SDS011;16365;51.598;7.668;2023-07-09T09:45:18;9.68;;;6.13;;
29382;SDS011;16365;51.598;7.668;2023-07-09T09:47:47;11.65;;;6.57;;
29382;SDS011;16365;51.598;7.668;2023-07-09T09:50:16;9.38;;;6.45;;
29382;SDS011;16365;51.598;7.668;2023-07-09T09:52:45;11.38;;;6.38;;
29382;SDS011;16365;51.598;7.668;2023-07-09T09:55:20;10.32;;;6.13;;
29382;SDS011;16365;51.598;7.668;2023-07-09T09:57:52;10.00;;;6.28;;
29382;SDS011;16365;51.598;7.668;2023-07-09T10:00:25;14.45;;;6.70;;
29382;SDS011;16365;51.598;7.668;2023-07-09T10:02:57;13.13;;;6.43;;
29382;SDS011;16365;51.598;7.668;2023-07-09T10:08:48;9.27;;;6.18;;
29382;SDS011;16365;51.598;7.668;2023-07-09T10:14:10;11.65;;;6.05;;
29382;SDS011;16365;51.598;7.668;2023-07-09T10:16:50;7.22;;;5.32;;
29382;SDS011;16365;51.598;7.668;2023-07-09T10:19:42;11.25;;;6.40;;
29382;SDS011;16365;51.598;7.668;2023-07-09T10:22:20;9.68;;;5.93;;
29382;SDS011;16365;51.598;7.668;2023-07-09T10:32:55;15.23;;;6.30;;
29382;SDS011;16365;51.598;7.668;2023-07-09T10:35:37;10.68;;;5.80;;
29382;SDS011;16365;51.598;7.668;2023-07-09T10:40:47;10.52;;;6.10;;
29382;SDS011;16365;51.598;7.668;2023-07-09T10:43:20;10.25;;;6.10;;
29382;SDS011;16365;51.598;7.668;2023-07-09T10:46:01;7.97;;;5.60;;
29382;SDS011;16365;51.598;7.668;2023-07-09T10:48:36;10.55;;;6.03;;
29382;SDS011;16365;51.598;7.668;2023-07-09T10:51:29;9.55;;;6.00;;
29382;SDS011;16365;51.598;7.668;2023-07-09T10:54:14;12.05;;;5.72;;
29382;SDS011;16365;51.598;7.668;2023-07-09T10:56:48;11.27;;;5.47;;
29382;SDS011;16365;51.598;7.668;2023-07-09T10:59:33;11.00;;;5.43;;
29382;SDS011;16365;51.598;7.668;2023-07-09T11:05:00;8.43;;;5.43;;
29382;SDS011;16365;51.598;7.668;2023-07-09T11:07:38;9.05;;;5.45;;
29382;SDS011;16365;51.598;7.668;2023-07-09T11:10:25;6.15;;;4.90;;
29382;SDS011;16365;51.598;7.668;2023-07-09T11:13:06;6.88;;;5.03;;
29382;SDS011;16365;51.598;7.668;2023-07-09T11:15:40;11.90;;;6.55;;
29382;SDS011;16365;51.598;7.668;2023-07-09T11:18:15;10.75;;;5.90;;
29382;SDS011;16365;51.598;7.668;2023-07-09T11:20:54;9.13;;;5.47;;
29382;SDS011;16365;51.598;7.668;2023-07-09T11:23:43;10.52;;;5.78;;
29382;SDS011;16365;51.598;7.668;2023-07-09T11:28:53;9.93;;;5.88;;
29382;SDS011;16365;51.598;7.668;2023-07-09T11:31:43;11.73;;;5.32;;
29382;SDS011;16365;51.598;7.668;2023-07-09T11:36:50;13.95;;;5.28;;
29382;SDS011;16365;51.598;7.668;2023-07-09T11:39:29;10.00;;;5.47;;
29382;SDS011;16365;51.598;7.668;2023-07-09T11:42:23;7.68;;;5.28;;
29382;SDS011;16365;51.598;7.668;2023-07-09T11:44:54;8.23;;;4.80;;
29382;SDS011;16365;51.598;7.668;2023-07-09T11:48:00;8.82;;;5.38;;
29382;SDS011;16365;51.598;7.668;2023-07-09T11:50:38;7.93;;;5.05;;
29382;SDS011;16365;51.598;7.668;2023-07-09T11:55:39;10.77;;;4.85;;
29382;SDS011;16365;51.598;7.668;2023-07-09T11:58:08;11.35;;;5.20;;
29382;SDS011;16365;51.598;7.668;2023-07-09T12:00:54;8.55;;;4.93;;
29382;SDS011;16365;51.598;7.668;2023-07-09T12:03:32;6.90;;;5.25;;
29382;SDS011;16365;51.598;7.668;2023-07-09T12:06:04;7.55;;;4.95;;
29382;SDS011;16365;51.598;7.668;2023-07-09T12:08:39;7.47;;;5.38;;
29382;SDS011;16365;51.598;7.668;2023-07-09T12:11:17;9.18;;;5.00;;
29382;SDS011;16365;51.598;7.668;2023-07-09T12:13:45;11.18;;;7.35;;
29382;SDS011;16365;51.598;7.668;2023-07-09T12:16:22;12.75;;;5.68;;
29382;SDS011;16365;51.598;7.668;2023-07-09T12:18:49;10.65;;;5.28;;
29382;SDS011;16365;51.598;7.668;2023-07-09T12:21:17;8.57;;;5.32;;
29382;SDS011;16365;51.598;7.668;2023-07-09T12:23:45;11.68;;;5.68;;
29382;SDS011;16365;51.598;7.668;2023-07-09T12:26:12;9.27;;;5.28;;
29382;SDS011;16365;51.598;7.668;2023-07-09T12:28:40;8.05;;;5.20;;
29382;SDS011;16365;51.598;7.668;2023-07-09T12:31:13;7.32;;;4.93;;
29382;SDS011;16365;51.598;7.668;2023-07-09T12:33:49;9.00;;;5.72;;
29382;SDS011;16365;51.598;7.668;2023-07-09T12:36:19;9.20;;;5.25;;
29382;SDS011;16365;51.598;7.668;2023-07-09T12:38:48;7.10;;;4.88;;
29382;SDS011;16365;51.598;7.668;2023-07-09T12:41:19;13.07;;;7.57;;
29382;SDS011;16365;51.598;7.668;2023-07-09T12:43:49;8.77;;;5.70;;
29382;SDS011;16365;51.598;7.668;2023-07-09T12:46:18;11.23;;;5.57;;
29382;SDS011;16365;51.598;7.668;2023-07-09T12:48:45;8.95;;;4.72;;
29382;SDS011;16365;51.598;7.668;2023-07-09T12:51:13;11.20;;;6.43;;
29382;SDS011;16365;51.598;7.668;2023-07-09T12:53:44;10.23;;;5.90;;
29382;SDS011;16365;51.598;7.668;2023-07-09T12:56:12;9.30;;;5.97;;
29382;SDS011;16365;51.598;7.668;2023-07-09T12:58:41;7.15;;;4.97;;
29382;SDS011;16365;51.598;7.668;2023-07-09T13:01:14;9.73;;;5.70;;
29382;SDS011;16365;51.598;7.668;2023-07-09T13:03:52;7.32;;;4.90;;
29382;SDS011;16365;51.598;7.668;2023-07-09T13:06:28;8.35;;;4.80;;
29382;SDS011;16365;51.598;7.668;2023-07-09T13:09:00;6.72;;;4.70;;
29382;SDS011;16365;51.598;7.668;2023-07-09T13:11:35;9.95;;;5.20;;
29382;SDS011;16365;51.598;7.668;2023-07-09T13:14:04;9.40;;;4.80;;
29382;SDS011;16365;51.598;7.668;2023-07-09T13:16:39;10.30;;;4.88;;
29382;SDS011;16365;51.598;7.668;2023-07-09T13:19:11;9.27;;;5.53;;
29382;SDS011;16365;51.598;7.668;2023-07-09T13:21:38;8.60;;;5.20;;
29382;SDS011;16365;51.598;7.668;2023-07-09T13:24:25;9.55;;;5.00;;
29382;SDS011;16365;51.598;7.668;2023-07-09T13:26:54;10.27;;;4.43;;
29382;SDS011;16365;51.598;7.668;2023-07-09T13:29:24;8.88;;;5.10;;
29382;SDS011;16365;51.598;7.668;2023-07-09T13:31:51;10.02;;;5.28;;
29382;SDS011;16365;51.598;7.668;2023-07-09T13:34:20;12.15;;;4.90;;
29382;SDS011;16365;51.598;7.668;2023-07-09T13:36:49;9.52;;;5.20;;
29382;SDS011;16365;51.598;7.668;2023-07-09T13:41:44;8.93;;;4.10;;
29382;SDS011;16365;51.598;7.668;2023-07-09T13:44:13;9.50;;;4.57;;
29382;SDS011;16365;51.598;7.668;2023-07-09T13:46:45;7.18;;;4.63;;
29382;SDS011;16365;51.598;7.668;2023-07-09T13:49:13;8.77;;;4.82;;
29382;SDS011;16365;51.598;7.668;2023-07-09T13:51:44;7.85;;;4.35;;
29382;SDS011;16365;51.598;7.668;2023-07-09T13:54:23;8.23;;;3.72;;
29382;SDS011;16365;51.598;7.668;2023-07-09T13:56:53;10.52;;;3.83;;
29382;SDS011;16365;51.598;7.668;2023-07-09T13:59:23;7.60;;;4.40;;
29382;SDS011;16365;51.598;7.668;2023-07-09T14:01:52;6.57;;;4.60;;
29382;SDS011;16365;51.598;7.668;2023-07-09T14:04:21;4.90;;;3.50;;
29382;SDS011;16365;51.598;7.668;2023-07-09T14:06:48;8.70;;;4.20;;
29382;SDS011;16365;51.598;7.668;2023-07-09T14:09:15;7.85;;;3.90;;
29382;SDS011;16365;51.598;7.668;2023-07-09T14:11:47;8.05;;;4.18;;
29382;SDS011;16365;51.598;7.668;2023-07-09T14:14:20;7.22;;;4.05;;
29382;SDS011;16365;51.598;7.668;2023-07-09T14:16:47;5.57;;;3.78;;
29382;SDS011;16365;51.598;7.668;2023-07-09T14:21:44;5.63;;;3.58;;
29382;SDS011;16365;51.598;7.668;2023-07-09T14:24:21;8.65;;;3.53;;
29382;SDS011;16365;51.598;7.668;2023-07-09T14:26:50;11.95;;;3.80;;
29382;SDS011;16365;51.598;7.668;2023-07-09T14:31:45;5.88;;;3.53;;
29382;SDS011;16365;51.598;7.668;2023-07-09T14:34:18;7.00;;;3.58;;
29382;SDS011;16365;51.598;7.668;2023-07-09T14:36:50;5.60;;;3.58;;
29382;SDS011;16365;51.598;7.668;2023-07-09T14:39:19;4.55;;;3.75;;
29382;SDS011;16365;51.598;7.668;2023-07-09T14:41:45;9.13;;;3.90;;
29382;SDS011;16365;51.598;7.668;2023-07-09T14:46:50;5.45;;;3.83;;
29382;SDS011;16365;51.598;7.668;2023-07-09T14:49:20;7.90;;;5.00;;
29382;SDS011;16365;51.598;7.668;2023-07-09T14:51:47;13.95;;;4.60;;
29382;SDS011;16365;51.598;7.668;2023-07-09T14:56:48;7.15;;;3.92;;
29382;SDS011;16365;51.598;7.668;2023-07-09T14:59:16;7.95;;;4.47;;
29382;SDS011;16365;51.598;7.668;2023-07-09T15:01:42;8.70;;;4.43;;
29382;SDS011;16365;51.598;7.668;2023-07-09T15:06:58;7.28;;;4.75;;
29382;SDS011;16365;51.598;7.668;2023-07-09T15:09:26;7.75;;;4.65;;
29382;SDS011;16365;51.598;7.668;2023-07-09T15:11:55;11.02;;;5.20;;
29382;SDS011;16365;51.598;7.668;2023-07-09T15:14:29;9.32;;;4.63;;
29382;SDS011;16365;51.598;7.668;2023-07-09T15:16:56;7.28;;;4.30;;
29382;SDS011;16365;51.598;7.668;2023-07-09T15:19:26;8.10;;;4.60;;
29382;SDS011;16365;51.598;7.668;2023-07-09T15:21:54;7.75;;;4.63;;
29382;SDS011;16365;51.598;7.668;2023-07-09T15:24:32;9.43;;;5.35;;
29382;SDS011;16365;51.598;7.668;2023-07-09T15:27:15;8.98;;;4.88;;
29382;SDS011;16365;51.598;7.668;2023-07-09T15:29:41;8.18;;;5.63;;
29382;SDS011;16365;51.598;7.668;2023-07-09T15:32:08;10.98;;;6.05;;
29382;SDS011;16365;51.598;7.668;2023-07-09T15:34:37;15.75;;;5.30;;
29382;SDS011;16365;51.598;7.668;2023-07-09T15:37:04;13.98;;;4.85;;
29382;SDS011;16365;51.598;7.668;2023-07-09T15:39:39;18.70;;;5.00;;
29382;SDS011;16365;51.598;7.668;2023-07-09T15:42:11;11.73;;;4.47;;
29382;SDS011;16365;51.598;7.668;2023-07-09T15:44:39;16.30;;;4.25;;
29382;SDS011;16365;51.598;7.668;2023-07-09T15:47:13;9.77;;;3.73;;
29382;SDS011;16365;51.598;7.668;2023-07-09T15:49:44;11.43;;;3.97;;
29382;SDS011;16365;51.598;7.668;2023-07-09T15:52:11;9.70;;;3.95;;